Time;durP1;ratioP1;P1;durP2;ratioP2;P2;SDS_P1;SDS_P2;PMS_P1;PMS_P2;Temp;Humidity;BMP_temperature;BMP_pressure;BME280_temperature;BME280_humidity;BME280_pressure;Samples;Min_cycle;Max_cycle;Signal;HPM_P1;HPM_P2
2022/11/09 00:01:05;;;;;;;;;;;17.10;49.90;;;;;;8396430;28;19991;-43
2022/11/09 00:05:06;;;;;;;;;;;17.10;49.90;;;;;;8397147;28;20020;-44
2022/11/09 00:09:08;;;;;;;;;;;17.10;49.90;;;;;;8396565;28;19921;-44
2022/11/09 00:13:08;;;;;;;;;;;17.10;49.90;;;;;;8397013;28;19960;-43
2022/11/09 00:17:09;;;;;;;;;;;17.10;50.40;;;;;;8395852;28;19916;-43
2022/11/09 00:21:11;;;;;;;;;;;17.10;49.90;;;;;;8396134;28;19924;-43
2022/11/09 00:25:12;;;;;;;;;;;17.10;50.00;;;;;;8396840;28;20007;-44
2022/11/09 00:29:12;;;;;;;;;;;17.10;50.00;;;;;;8396444;28;19928;-44
2022/11/09 00:33:13;;;;;;;;;;;17.10;49.90;;;;;;8396057;28;19952;-44
2022/11/09 00:37:13;;;;;;;;;;;17.10;49.90;;;;;;8396175;28;19993;-45
2022/11/09 00:41:14;;;;;;;;;;;17.10;49.90;;;;;;8396336;28;20373;-45
2022/11/09 00:45:15;;;;;;;;;;;17.10;49.90;;;;;;8395748;28;20327;-44
2022/11/09 00:49:15;;;;;;;;;;;17.10;49.90;;;;;;8396205;28;20416;-45
2022/11/09 00:53:16;;;;;;;;;;;17.00;49.80;;;;;;8396012;28;19969;-44
2022/11/09 00:57:16;;;;;;;;;;;17.10;49.90;;;;;;8395474;28;19917;-44
2022/11/09 01:01:17;;;;;;;;;;;17.10;49.90;;;;;;8395782;28;19917;-43
2022/11/09 01:05:18;;;;;;;;;;;17.00;49.90;;;;;;8396403;28;19931;-45
2022/11/09 01:09:18;;;;;;;;;;;17.00;49.90;;;;;;8395517;28;19925;-43
2022/11/09 01:13:19;;;;;;;;;;;17.10;49.90;;;;;;8395691;28;20361;-44
2022/11/09 01:17:20;;;;;;;;;;;17.00;49.90;;;;;;8395696;28;19916;-44
2022/11/09 01:21:20;;;;;;;;;;;17.00;49.90;;;;;;8395151;28;19924;-43
2022/11/09 01:25:21;;;;;;;;;;;17.00;49.90;;;;;;8395861;28;19916;-43
2022/11/09 01:29:21;;;;;;;;;;;17.00;50.40;;;;;;8401712;28;20389;-44
2022/11/09 01:33:21;;;;;;;;;;;17.00;49.90;;;;;;8401066;28;19924;-43
2022/11/09 01:37:22;;;;;;;;;;;17.00;49.90;;;;;;8401192;28;19924;-44
2022/11/09 01:41:24;;;;;;;;;;;17.00;49.90;;;;;;8401095;28;19951;-45
2022/11/09 01:45:26;;;;;;;;;;;17.00;49.90;;;;;;8400778;28;19958;-43
2022/11/09 01:49:48;;;;;;;;;;;17.00;49.90;;;;;;8401225;28;19921;-43
2022/11/09 01:53:49;;;;;;;;;;;17.00;49.90;;;;;;8400814;28;19963;-44
2022/11/09 01:57:58;;;;;;;;;;;17.00;49.90;;;;;;8400339;28;19939;-44
2022/11/09 02:01:59;;;;;;;;;;;17.00;50.00;;;;;;8400828;28;19931;-44
2022/11/09 02:06:02;;;;;;;;;;;17.00;49.90;;;;;;8392374;28;19920;-45
2022/11/09 02:10:21;;;;;;;;;;;17.00;49.90;;;;;;8366932;28;19935;-43
2022/11/09 02:14:22;;;;;;;;;;;17.00;49.90;;;;;;8367349;28;19979;-43
2022/11/09 02:18:23;;;;;;;;;;;17.00;50.00;;;;;;8366560;28;19956;-43
2022/11/09 02:22:23;;;;;;;;;;;17.00;49.90;;;;;;8367048;28;19920;-43
2022/11/09 02:26:44;;;;;;;;;;;17.00;49.90;;;;;;8366576;28;19925;-43
2022/11/09 02:30:47;;;;;;;;;;;17.00;49.90;;;;;;8365992;28;19971;-43
2022/11/09 02:34:47;;;;;;;;;;;17.00;49.90;;;;;;8366709;28;19966;-43
2022/11/09 02:38:48;;;;;;;;;;;17.00;49.90;;;;;;8365650;28;19955;-44
2022/11/09 02:42:49;;;;;;;;;;;17.00;50.00;;;;;;8365733;28;19986;-43
2022/11/09 02:46:50;;;;;;;;;;;16.90;49.90;;;;;;8365992;28;19958;-44
2022/11/09 02:50:50;;;;;;;;;;;16.90;49.90;;;;;;8365858;28;20301;-44
2022/11/09 02:54:51;;;;;;;;;;;17.00;50.00;;;;;;8365680;28;19913;-43
2022/11/09 02:58:51;;;;;;;;;;;16.90;50.00;;;;;;8365806;28;19962;-43
2022/11/09 03:02:52;;;;;;;;;;;16.90;49.90;;;;;;8365538;28;19917;-43
2022/11/09 03:06:52;;;;;;;;;;;16.90;49.90;;;;;;8365694;28;19975;-42
2022/11/09 03:10:53;;;;;;;;;;;16.90;49.90;;;;;;8365293;28;19924;-43
2022/11/09 03:14:54;;;;;;;;;;;16.90;50.00;;;;;;8365317;28;19927;-42
2022/11/09 03:18:55;;;;;;;;;;;17.00;50.10;;;;;;8364579;28;20378;-42
2022/11/09 03:22:56;;;;;;;;;;;16.90;50.10;;;;;;8365247;28;19917;-43
2022/11/09 03:26:57;;;;;;;;;;;16.90;50.00;;;;;;8364836;28;19925;-43
2022/11/09 03:30:57;;;;;;;;;;;17.00;50.00;;;;;;8364393;28;19959;-44
2022/11/09 03:34:58;;;;;;;;;;;16.90;50.00;;;;;;8364810;28;19963;-43
2022/11/09 03:38:58;;;;;;;;;;;16.90;50.00;;;;;;8364591;28;19920;-43
2022/11/09 03:42:59;;;;;;;;;;;16.90;50.00;;;;;;8363874;28;19924;-43
2022/11/09 03:46:59;;;;;;;;;;;16.90;50.00;;;;;;8363904;28;19925;-44
2022/11/09 03:51:00;;;;;;;;;;;16.90;50.00;;;;;;8363003;28;20008;-44
2022/11/09 03:55:00;;;;;;;;;;;16.90;50.00;;;;;;8363682;28;20344;-43
2022/11/09 03:59:01;;;;;;;;;;;16.90;50.00;;;;;;8363766;28;19916;-44
2022/11/09 04:03:01;;;;;;;;;;;16.90;50.00;;;;;;8363707;28;19920;-44
2022/11/09 04:07:02;;;;;;;;;;;16.90;50.00;;;;;;8363592;28;19947;-45
2022/11/09 04:11:02;;;;;;;;;;;16.90;50.10;;;;;;8363687;28;19920;-44
2022/11/09 04:15:03;;;;;;;;;;;16.90;50.00;;;;;;8363622;28;19917;-44
2022/11/09 04:19:03;;;;;;;;;;;16.90;50.10;;;;;;8362793;28;19959;-45
2022/11/09 04:23:04;;;;;;;;;;;16.90;50.10;;;;;;8363477;28;19925;-44
2022/11/09 04:27:05;;;;;;;;;;;16.90;50.10;;;;;;8363119;28;19921;-43
2022/11/09 04:31:05;;;;;;;;;;;16.90;50.10;;;;;;8363474;28;19963;-45
2022/11/09 04:35:06;;;;;;;;;;;16.90;50.10;;;;;;8362984;28;20369;-44
2022/11/09 04:39:06;;;;;;;;;;;16.90;50.10;;;;;;8362470;28;19913;-44
2022/11/09 04:43:10;;;;;;;;;;;16.90;50.10;;;;;;8362834;28;20408;-44
2022/11/09 04:47:10;;;;;;;;;;;16.90;50.20;;;;;;8362794;28;20368;-44
2022/11/09 04:51:11;;;;;;;;;;;16.90;50.20;;;;;;8362553;28;19955;-45
2022/11/09 04:55:11;;;;;;;;;;;16.90;50.20;;;;;;8362742;28;19916;-44
2022/11/09 04:59:12;;;;;;;;;;;16.90;50.70;;;;;;8362609;28;20012;-44
2022/11/09 05:03:12;;;;;;;;;;;16.90;50.20;;;;;;8367403;28;19920;-43
2022/11/09 05:07:12;;;;;;;;;;;16.90;50.20;;;;;;8368816;28;20305;-44
2022/11/09 05:11:13;;;;;;;;;;;16.90;50.20;;;;;;8368133;28;19944;-44
2022/11/09 05:15:13;;;;;;;;;;;16.90;50.20;;;;;;8367201;28;19921;-44
2022/11/09 05:19:14;;;;;;;;;;;16.90;50.20;;;;;;8368764;28;19963;-44
2022/11/09 05:27:33;;;;;;;;;;;16.90;50.20;;;;;;8368234;28;20300;-44
2022/11/09 05:31:34;;;;;;;;;;;16.90;50.20;;;;;;8368579;28;19916;-44
2022/11/09 05:35:35;;;;;;;;;;;16.90;50.20;;;;;;8368998;28;20246;-44
2022/11/09 05:39:35;;;;;;;;;;;16.90;50.20;;;;;;8367680;28;19917;-44
2022/11/09 05:43:35;;;;;;;;;;;16.90;50.20;;;;;;8368345;28;19999;-44
2022/11/09 05:47:37;;;;;;;;;;;16.90;50.20;;;;;;8367620;28;19959;-42
2022/11/09 05:51:38;;;;;;;;;;;16.90;50.20;;;;;;8367437;28;19916;-44
2022/11/09 05:55:39;;;;;;;;;;;16.90;50.30;;;;;;8367474;28;20011;-44
2022/11/09 05:59:39;;;;;;;;;;;16.90;50.30;;;;;;8367418;28;19924;-44
2022/11/09 06:03:42;;;;;;;;;;;16.90;50.30;;;;;;8366753;28;19979;-44
2022/11/09 06:07:43;;;;;;;;;;;16.90;50.30;;;;;;8367110;28;19925;-44
2022/11/09 06:11:43;;;;;;;;;;;16.90;50.30;;;;;;8366581;28;19917;-44
2022/11/09 06:15:50;;;;;;;;;;;16.90;50.30;;;;;;8365871;28;19917;-44
2022/11/09 06:19:51;;;;;;;;;;;16.90;50.50;;;;;;8366790;28;19967;-44
2022/11/09 06:23:51;;;;;;;;;;;16.90;50.30;;;;;;8366544;28;20321;-44
2022/11/09 06:27:52;;;;;;;;;;;16.90;50.30;;;;;;8365978;28;19924;-44
2022/11/09 06:31:53;;;;;;;;;;;16.90;50.40;;;;;;8366603;28;19912;-44
2022/11/09 06:35:55;;;;;;;;;;;16.90;50.40;;;;;;8366193;28;19951;-44
2022/11/09 06:39:55;;;;;;;;;;;16.90;50.40;;;;;;8365535;28;20312;-45
2022/11/09 06:43:56;;;;;;;;;;;16.90;50.30;;;;;;8365952;28;19917;-44
2022/11/09 06:47:57;;;;;;;;;;;16.90;50.40;;;;;;8365975;28;20324;-44
2022/11/09 06:51:57;;;;;;;;;;;16.90;50.40;;;;;;8365414;28;19920;-45
2022/11/09 06:56:01;;;;;;;;;;;16.90;50.40;;;;;;8366022;28;20346;-44
2022/11/09 07:00:03;;;;;;;;;;;16.90;50.40;;;;;;8365504;28;20294;-44
2022/11/09 07:04:03;;;;;;;;;;;16.90;50.40;;;;;;8365088;28;19928;-44
2022/11/09 07:08:04;;;;;;;;;;;16.90;50.40;;;;;;8365243;28;19943;-44
2022/11/09 07:12:04;;;;;;;;;;;16.90;50.40;;;;;;8365345;28;19920;-44
2022/11/09 07:16:05;;;;;;;;;;;16.90;50.40;;;;;;8364458;28;19925;-44
2022/11/09 07:20:07;;;;;;;;;;;16.90;50.40;;;;;;8365111;28;19956;-44
2022/11/09 07:24:07;;;;;;;;;;;16.90;50.40;;;;;;8364408;28;19944;-45
2022/11/09 07:28:08;;;;;;;;;;;16.90;50.40;;;;;;8365004;28;19978;-44
2022/11/09 07:32:09;;;;;;;;;;;16.90;50.50;;;;;;8364985;28;19913;-44
2022/11/09 07:36:09;;;;;;;;;;;16.90;50.50;;;;;;8364072;28;19928;-45
2022/11/09 07:40:10;;;;;;;;;;;16.90;50.50;;;;;;8364394;28;20378;-44
2022/11/09 07:44:13;;;;;;;;;;;16.90;50.40;;;;;;8364709;28;19962;-44
2022/11/09 07:48:14;;;;;;;;;;;16.90;50.50;;;;;;8363662;28;19932;-44
2022/11/09 07:52:14;;;;;;;;;;;16.90;50.60;;;;;;8364582;28;20011;-44
2022/11/09 07:56:15;;;;;;;;;;;16.90;50.80;;;;;;8364297;28;19931;-44
2022/11/09 08:00:15;;;;;;;;;;;16.90;50.60;;;;;;8363334;28;19924;-44
2022/11/09 08:04:16;;;;;;;;;;;16.90;50.60;;;;;;8350555;28;20266;-45
2022/11/09 08:08:16;;;;;;;;;;;16.90;50.60;;;;;;8336052;28;19924;-44
2022/11/09 08:12:17;;;;;;;;;;;16.90;50.60;;;;;;8363218;28;20362;-44
2022/11/09 08:16:17;;;;;;;;;;;17.00;51.20;;;;;;8363411;28;19917;-44
2022/11/09 08:20:18;;;;;;;;;;;16.90;50.60;;;;;;8363427;28;20382;-45
2022/11/09 08:24:19;;;;;;;;;;;16.90;50.70;;;;;;8362787;28;19917;-44
2022/11/09 08:28:20;;;;;;;;;;;16.90;50.70;;;;;;8363447;28;20019;-44
2022/11/09 08:32:20;;;;;;;;;;;17.00;50.70;;;;;;8363901;28;19920;-45
2022/11/09 08:36:20;;;;;;;;;;;17.00;50.70;;;;;;8367218;28;20361;-45
2022/11/09 08:40:22;;;;;;;;;;;17.00;50.80;;;;;;8372736;28;19924;-44
2022/11/09 08:44:23;;;;;;;;;;;17.00;50.70;;;;;;8373811;28;19917;-44
2022/11/09 08:48:23;;;;;;;;;;;17.00;50.70;;;;;;8373455;28;20344;-44
2022/11/09 08:52:24;;;;;;;;;;;17.00;50.70;;;;;;8373981;28;20297;-44
2022/11/09 08:56:24;;;;;;;;;;;17.00;50.80;;;;;;8373564;28;19917;-44
2022/11/09 09:00:25;;;;;;;;;;;17.00;50.80;;;;;;8373025;28;19950;-44
2022/11/09 09:04:25;;;;;;;;;;;17.00;50.70;;;;;;8373667;28;19921;-43
2022/11/09 09:08:26;;;;;;;;;;;17.00;50.80;;;;;;8373439;28;20297;-44
2022/11/09 09:12:26;;;;;;;;;;;17.00;50.80;;;;;;8373368;28;19935;-44
2022/11/09 09:16:27;;;;;;;;;;;17.00;50.80;;;;;;8373674;28;19924;-45
2022/11/09 09:20:28;;;;;;;;;;;17.00;50.70;;;;;;8373548;28;19986;-44
2022/11/09 09:24:28;;;;;;;;;;;17.00;50.80;;;;;;8372922;28;19923;-45
2022/11/09 09:28:29;;;;;;;;;;;17.00;50.80;;;;;;8373343;28;19925;-45
2022/11/09 09:32:29;;;;;;;;;;;17.10;50.80;;;;;;8373525;28;20324;-44
2022/11/09 09:36:30;;;;;;;;;;;17.10;50.80;;;;;;8372850;28;20421;-44
2022/11/09 09:40:33;;;;;;;;;;;17.10;50.80;;;;;;8373145;28;19916;-44
2022/11/09 09:44:34;;;;;;;;;;;17.10;50.80;;;;;;8373176;28;19924;-44
2022/11/09 09:48:41;;;;;;;;;;;17.10;50.80;;;;;;8369301;28;19921;-44
2022/11/09 09:52:55;;;;;;;;;;;17.10;50.80;;;;;;8367939;28;20316;-44
2022/11/09 09:56:58;;;;;;;;;;;17.10;50.80;;;;;;8367488;28;20365;-45
2022/11/09 10:01:03;;;;;;;;;;;17.10;50.80;;;;;;8366997;28;19917;-45
2022/11/09 10:05:10;;;;;;;;;;;17.10;50.80;;;;;;8367253;28;20374;-44
2022/11/09 10:09:24;;;;;;;;;;;17.10;50.80;;;;;;8366650;28;19924;-44
2022/11/09 10:13:54;;;;;;;;;;;17.10;50.80;;;;;;8367475;28;19917;-45
2022/11/09 10:18:14;;;;;;;;;;;17.10;50.80;;;;;;8383131;28;19975;-44
2022/11/09 10:22:26;;;;;;;;;;;17.10;50.80;;;;;;8366600;28;20289;-44
2022/11/09 10:26:37;;;;;;;;;;;17.20;50.90;;;;;;8399066;28;19924;-45
2022/11/09 10:30:38;;;;;;;;;;;17.10;50.90;;;;;;8367443;28;19920;-44
2022/11/09 10:34:57;;;;;;;;;;;17.20;50.90;;;;;;8366402;28;20003;-46
2022/11/09 10:38:58;;;;;;;;;;;17.20;50.90;;;;;;8366420;28;20324;-44
2022/11/09 10:43:01;;;;;;;;;;;17.20;50.90;;;;;;8366120;28;19913;-45
2022/11/09 10:47:04;;;;;;;;;;;17.20;51.00;;;;;;8364646;28;19931;-44
2022/11/09 10:51:05;;;;;;;;;;;17.20;50.90;;;;;;8366072;28;19975;-45
2022/11/09 10:55:22;;;;;;;;;;;17.20;50.90;;;;;;8365434;28;19943;-45
2022/11/09 10:59:32;;;;;;;;;;;17.20;50.90;;;;;;8365262;28;19920;-44
2022/11/09 11:03:37;;;;;;;;;;;17.20;50.90;;;;;;8353513;28;19939;-44
2022/11/09 11:07:38;;;;;;;;;;;17.20;50.90;;;;;;8364348;28;20297;-44
2022/11/09 11:11:38;;;;;;;;;;;17.30;51.00;;;;;;8365260;28;19924;-44
2022/11/09 11:15:40;;;;;;;;;;;17.30;51.00;;;;;;8364649;28;19984;-44
2022/11/09 11:19:40;;;;;;;;;;;17.30;51.50;;;;;;8365086;28;19917;-44
2022/11/09 11:23:41;;;;;;;;;;;17.30;51.00;;;;;;8365249;28;20362;-45
2022/11/09 11:27:45;;;;;;;;;;;17.30;50.90;;;;;;8364654;28;19932;-45
2022/11/09 11:31:45;;;;;;;;;;;17.30;50.90;;;;;;8364888;28;19924;-44
2022/11/09 11:35:56;;;;;;;;;;;17.30;50.90;;;;;;8364524;28;20091;-46
2022/11/09 11:39:57;;;;;;;;;;;17.30;51.00;;;;;;8363935;28;20321;-45
2022/11/09 11:44:02;;;;;;;;;;;17.30;50.90;;;;;;8364520;28;19966;-44
2022/11/09 11:48:02;;;;;;;;;;;17.30;50.90;;;;;;8364283;28;20291;-44
2022/11/09 11:52:22;;;;;;;;;;;17.30;50.90;;;;;;8363408;28;20011;-44
2022/11/09 11:56:35;;;;;;;;;;;17.30;50.90;;;;;;8363960;28;19920;-45
2022/11/09 12:00:40;;;;;;;;;;;17.40;51.00;;;;;;8363197;28;19940;-44
2022/11/09 12:04:50;;;;;;;;;;;17.30;51.00;;;;;;8370462;28;19921;-44
2022/11/09 12:09:09;;;;;;;;;;;17.40;51.00;;;;;;8363784;28;19921;-45
2022/11/09 12:13:12;;;;;;;;;;;17.40;51.00;;;;;;8362699;28;19917;-44
2022/11/09 12:17:18;;;;;;;;;;;17.30;51.00;;;;;;8363354;28;19917;-44
2022/11/09 12:21:36;;;;;;;;;;;17.40;51.00;;;;;;8362976;28;19916;-44
2022/11/09 12:25:45;;;;;;;;;;;17.30;51.00;;;;;;8363179;28;19924;-45
2022/11/09 12:29:51;;;;;;;;;;;17.40;51.00;;;;;;8363138;28;19929;-44
2022/11/09 12:34:05;;;;;;;;;;;17.40;51.00;;;;;;8362775;28;19913;-46
2022/11/09 12:38:17;;;;;;;;;;;17.40;51.00;;;;;;8363188;28;19966;-45
2022/11/09 12:42:20;;;;;;;;;;;17.40;51.00;;;;;;8362711;28;20392;-45
2022/11/09 12:46:23;;;;;;;;;;;17.40;51.00;;;;;;8363130;28;20063;-44
2022/11/09 12:50:25;;;;;;;;;;;17.40;51.00;;;;;;8362892;28;19932;-43
2022/11/09 12:54:26;;;;;;;;;;;17.40;51.10;;;;;;8362726;28;19938;-43
2022/11/09 12:58:28;;;;;;;;;;;17.40;51.00;;;;;;8362868;28;19921;-43
2022/11/09 13:02:33;;;;;;;;;;;17.40;51.10;;;;;;8362790;28;19917;-45
2022/11/09 13:06:35;;;;;;;;;;;17.40;51.10;;;;;;8362489;28;19928;-45
2022/11/09 13:10:37;;;;;;;;;;;17.40;51.10;;;;;;8362483;28;19995;-44
2022/11/09 13:14:38;;;;;;;;;;;17.40;51.10;;;;;;8362678;28;19921;-45
2022/11/09 13:18:40;;;;;;;;;;;17.40;51.10;;;;;;8362129;28;20407;-46
2022/11/09 13:22:41;;;;;;;;;;;17.40;51.20;;;;;;8365121;28;19996;-46
2022/11/09 13:26:44;;;;;;;;;;;17.40;51.20;;;;;;8368597;28;20263;-48
2022/11/09 13:30:45;;;;;;;;;;;17.40;51.20;;;;;;8368079;28;19920;-46
2022/11/09 13:34:47;;;;;;;;;;;17.40;51.20;;;;;;8368997;28;20392;-46
2022/11/09 13:39:08;;;;;;;;;;;17.50;51.20;;;;;;8368713;28;19941;-45
2022/11/09 13:43:11;;;;;;;;;;;17.50;51.20;;;;;;8367943;28;20003;-46
2022/11/09 13:47:26;;;;;;;;;;;17.40;51.20;;;;;;8368175;28;19932;-46
2022/11/09 13:51:42;;;;;;;;;;;17.40;51.20;;;;;;8367302;28;19924;-45
2022/11/09 13:55:42;;;;;;;;;;;17.50;51.30;;;;;;8367836;28;19967;-46
2022/11/09 13:59:45;;;;;;;;;;;17.40;51.30;;;;;;8367674;28;19917;-44
2022/11/09 14:03:49;;;;;;;;;;;17.40;51.30;;;;;;8366443;28;20265;-45
2022/11/09 14:07:51;;;;;;;;;;;17.50;51.30;;;;;;8367145;28;20430;-45
2022/11/09 14:12:04;;;;;;;;;;;17.50;51.30;;;;;;8367025;28;19999;-45
2022/11/09 14:16:04;;;;;;;;;;;17.40;51.30;;;;;;8366495;28;19917;-46
2022/11/09 14:20:05;;;;;;;;;;;17.50;51.90;;;;;;8367058;28;19916;-46
2022/11/09 14:24:11;;;;;;;;;;;17.50;51.40;;;;;;8366817;28;19919;-45
2022/11/09 14:28:19;;;;;;;;;;;17.50;51.40;;;;;;8366343;28;19970;-46
2022/11/09 14:32:34;;;;;;;;;;;17.50;51.40;;;;;;8366610;28;19923;-46
2022/11/09 14:36:35;;;;;;;;;;;17.50;51.40;;;;;;8365176;28;19916;-45
2022/11/09 14:40:36;;;;;;;;;;;17.50;51.40;;;;;;8366265;28;19923;-44
2022/11/09 14:44:41;;;;;;;;;;;17.40;51.30;;;;;;8366462;28;19948;-45
2022/11/09 14:48:49;;;;;;;;;;;17.50;51.40;;;;;;8365385;28;19931;-44
2022/11/09 14:52:51;;;;;;;;;;;17.40;51.30;;;;;;8365794;28;19920;-47
2022/11/09 14:56:53;;;;;;;;;;;17.50;51.90;;;;;;8365919;28;19943;-46
2022/11/09 15:01:18;;;;;;;;;;;17.40;51.30;;;;;;8365306;28;19963;-44
2022/11/09 15:05:38;;;;;;;;;;;17.50;51.40;;;;;;8366355;28;19921;-46
2022/11/09 15:09:44;;;;;;;;;;;17.50;51.40;;;;;;8365055;28;20400;-44
2022/11/09 15:13:45;;;;;;;;;;;17.50;51.40;;;;;;8365226;28;19923;-44
2022/11/09 15:17:45;;;;;;;;;;;17.50;51.40;;;;;;8365290;28;19927;-46
2022/11/09 15:21:46;;;;;;;;;;;17.50;51.50;;;;;;8364683;28;19917;-45
2022/11/09 15:25:47;;;;;;;;;;;17.50;51.50;;;;;;8364884;28;19919;-43
2022/11/09 15:29:47;;;;;;;;;;;17.50;51.50;;;;;;8365093;28;19921;-46
2022/11/09 15:33:51;;;;;;;;;;;17.50;51.50;;;;;;8364159;28;19939;-44
2022/11/09 15:37:52;;;;;;;;;;;17.50;51.50;;;;;;8364597;28;19983;-47
2022/11/09 15:41:53;;;;;;;;;;;17.50;51.50;;;;;;8364332;28;19917;-44
2022/11/09 15:45:54;;;;;;;;;;;17.50;51.50;;;;;;8363866;28;20320;-43
2022/11/09 15:49:54;;;;;;;;;;;17.50;51.50;;;;;;8364437;28;19927;-43
2022/11/09 15:53:55;;;;;;;;;;;17.50;51.50;;;;;;8364169;28;19921;-43
2022/11/09 15:57:55;;;;;;;;;;;17.50;51.60;;;;;;8364231;28;19916;-45
2022/11/09 16:01:56;;;;;;;;;;;17.50;51.60;;;;;;8363914;28;19970;-45
2022/11/09 16:05:58;;;;;;;;;;;17.50;51.60;;;;;;8364146;28;19928;-49
2022/11/09 16:09:58;;;;;;;;;;;17.50;51.60;;;;;;8363184;28;19924;-44
2022/11/09 16:14:00;;;;;;;;;;;17.50;51.60;;;;;;8363485;28;19924;-44
2022/11/09 16:18:01;;;;;;;;;;;17.50;51.70;;;;;;8363442;28;19912;-44
2022/11/09 16:22:01;;;;;;;;;;;17.50;51.60;;;;;;8362756;28;20369;-45
2022/11/09 16:26:06;;;;;;;;;;;17.50;51.60;;;;;;8361921;28;19959;-45
2022/11/09 16:30:07;;;;;;;;;;;17.50;51.60;;;;;;8362807;28;19925;-45
2022/11/09 16:34:08;;;;;;;;;;;17.50;51.70;;;;;;8344572;28;19945;-44
2022/11/09 16:38:08;;;;;;;;;;;17.50;52.20;;;;;;8347952;28;19917;-44
2022/11/09 16:42:10;;;;;;;;;;;17.50;51.60;;;;;;8362783;28;19913;-44
2022/11/09 16:46:11;;;;;;;;;;;17.50;51.60;;;;;;8362717;28;20015;-44
2022/11/09 16:50:12;;;;;;;;;;;17.50;51.60;;;;;;8362996;28;19925;-44
2022/11/09 16:54:12;;;;;;;;;;;17.50;51.70;;;;;;8362120;28;19917;-44
2022/11/09 16:58:13;;;;;;;;;;;17.50;51.70;;;;;;8366357;28;19917;-44
2022/11/09 17:02:13;;;;;;;;;;;17.50;51.70;;;;;;8369156;28;19994;-43
2022/11/09 17:06:13;;;;;;;;;;;17.50;51.70;;;;;;8369210;28;20261;-43
2022/11/09 17:10:14;;;;;;;;;;;17.50;51.70;;;;;;8364885;28;19921;-45
2022/11/09 17:14:14;;;;;;;;;;;17.50;51.70;;;;;;8360905;28;19974;-44
2022/11/09 17:18:15;;;;;;;;;;;17.50;51.60;;;;;;8368540;28;20015;-44
2022/11/09 17:22:16;;;;;;;;;;;17.50;51.70;;;;;;8368779;28;19927;-43
2022/11/09 17:26:17;;;;;;;;;;;17.50;51.70;;;;;;8368759;28;19913;-44
2022/11/09 17:30:18;;;;;;;;;;;17.50;51.70;;;;;;8368329;28;19925;-43
2022/11/09 17:34:18;;;;;;;;;;;17.50;51.70;;;;;;8368745;28;19932;-43
2022/11/09 17:38:19;;;;;;;;;;;17.50;51.70;;;;;;8368163;28;19916;-44
2022/11/09 17:42:19;;;;;;;;;;;17.50;51.70;;;;;;8367852;28;20320;-44
2022/11/09 17:46:20;;;;;;;;;;;17.50;51.70;;;;;;8368464;28;19913;-44
2022/11/09 17:50:21;;;;;;;;;;;17.50;51.70;;;;;;8367772;28;19932;-43
2022/11/09 17:54:21;;;;;;;;;;;17.50;51.70;;;;;;8367528;28;20373;-44
2022/11/09 17:58:22;;;;;;;;;;;17.50;51.80;;;;;;8367676;28;19967;-44
2022/11/09 18:02:22;;;;;;;;;;;17.50;51.80;;;;;;8367484;28;20011;-45
2022/11/09 18:06:23;;;;;;;;;;;17.60;51.80;;;;;;8367842;28;20003;-44
2022/11/09 18:10:23;;;;;;;;;;;17.60;51.90;;;;;;8365986;28;19932;-45
2022/11/09 18:14:24;;;;;;;;;;;17.50;51.90;;;;;;8399361;28;19936;-44
2022/11/09 18:18:24;;;;;;;;;;;17.60;51.90;;;;;;8366720;28;19917;-45
2022/11/09 18:22:24;;;;;;;;;;;17.60;51.80;;;;;;8366922;28;19921;-44
2022/11/09 18:26:25;;;;;;;;;;;17.60;51.90;;;;;;8367253;28;20075;-44
2022/11/09 18:30:25;;;;;;;;;;;17.60;51.90;;;;;;8366097;28;19939;-44
2022/11/09 18:34:26;;;;;;;;;;;17.60;52.00;;;;;;8366380;28;19917;-45
2022/11/09 18:38:26;;;;;;;;;;;17.60;51.90;;;;;;8366504;28;19917;-45
2022/11/09 18:42:27;;;;;;;;;;;17.60;51.90;;;;;;8365880;28;19999;-46
2022/11/09 18:46:29;;;;;;;;;;;17.60;51.90;;;;;;8366473;28;19944;-45
2022/11/09 18:50:30;;;;;;;;;;;17.60;51.90;;;;;;8365902;28;19931;-47
2022/11/09 18:54:31;;;;;;;;;;;17.60;51.90;;;;;;8365474;28;19917;-45
2022/11/09 18:58:32;;;;;;;;;;;17.60;51.90;;;;;;8365780;28;19952;-45
2022/11/09 19:02:32;;;;;;;;;;;17.60;51.90;;;;;;8365555;28;19921;-45
2022/11/09 19:06:33;;;;;;;;;;;17.60;51.90;;;;;;8365740;28;20039;-44
2022/11/09 19:10:35;;;;;;;;;;;17.60;51.90;;;;;;8365307;28;19925;-46
2022/11/09 19:14:39;;;;;;;;;;;17.60;52.00;;;;;;8365301;28;19928;-45
2022/11/09 19:18:40;;;;;;;;;;;17.60;52.00;;;;;;8364786;28;20385;-44
2022/11/09 19:22:40;;;;;;;;;;;17.60;51.90;;;;;;8365118;28;19913;-44
2022/11/09 19:26:41;;;;;;;;;;;17.60;52.00;;;;;;8365060;28;20377;-44
2022/11/09 19:30:41;;;;;;;;;;;17.60;52.00;;;;;;8364262;28;19928;-44
2022/11/09 19:34:44;;;;;;;;;;;17.60;52.00;;;;;;8364663;28;20004;-47
2022/11/09 19:38:48;;;;;;;;;;;17.60;52.00;;;;;;8364550;28;20375;-43
2022/11/09 19:42:48;;;;;;;;;;;17.60;52.00;;;;;;8363972;28;20434;-44
2022/11/09 19:46:49;;;;;;;;;;;17.60;52.10;;;;;;8364402;28;19912;-45
2022/11/09 19:50:50;;;;;;;;;;;17.60;52.10;;;;;;8364323;28;19924;-44
2022/11/09 19:54:51;;;;;;;;;;;17.60;52.00;;;;;;8363842;28;19938;-45
2022/11/09 19:58:56;;;;;;;;;;;17.60;52.00;;;;;;8363991;28;19963;-44
2022/11/09 20:02:57;;;;;;;;;;;17.60;52.00;;;;;;8363971;28;20262;-46
2022/11/09 20:06:57;;;;;;;;;;;17.60;52.00;;;;;;8362740;28;19925;-44
2022/11/09 20:11:07;;;;;;;;;;;17.60;52.10;;;;;;8363258;28;21294;-45
2022/11/09 20:15:07;;;;;;;;;;;17.60;52.10;;;;;;8362280;28;19920;-44
2022/11/09 20:19:10;;;;;;;;;;;17.60;52.10;;;;;;8363475;28;20405;-44
2022/11/09 20:23:10;;;;;;;;;;;17.60;52.10;;;;;;8363786;28;20935;-45
2022/11/09 20:27:11;;;;;;;;;;;17.60;52.10;;;;;;8363119;28;19929;-44
2022/11/09 20:31:13;;;;;;;;;;;17.60;52.10;;;;;;8362518;28;20442;-45
2022/11/09 20:35:14;;;;;;;;;;;17.60;52.10;;;;;;8363345;28;19917;-44
2022/11/09 20:39:14;;;;;;;;;;;17.60;52.10;;;;;;8362874;28;20012;-45
2022/11/09 20:43:15;;;;;;;;;;;17.60;52.10;;;;;;8363182;28;19916;-45
2022/11/09 20:47:16;;;;;;;;;;;17.60;52.20;;;;;;8363429;28;19929;-45
2022/11/09 20:51:17;;;;;;;;;;;17.70;52.20;;;;;;8362624;28;19924;-45
2022/11/09 20:55:18;;;;;;;;;;;17.60;52.10;;;;;;8363097;28;19975;-46
2022/11/09 20:59:18;;;;;;;;;;;17.60;52.20;;;;;;8363016;28;20388;-45
2022/11/09 21:03:20;;;;;;;;;;;17.60;52.20;;;;;;8362629;28;19917;-45
2022/11/09 21:07:20;;;;;;;;;;;17.60;52.20;;;;;;8363382;28;19932;-44
2022/11/09 21:11:22;;;;;;;;;;;17.60;52.20;;;;;;8362573;28;19917;-45
2022/11/09 21:15:23;;;;;;;;;;;17.60;52.10;;;;;;8362168;28;19920;-45
2022/11/09 21:19:23;;;;;;;;;;;17.60;52.20;;;;;;8361469;28;19917;-45
2022/11/09 21:31:43;;;;;;;;;;;17.60;52.20;;;;;;8362671;28;20423;-44
2022/11/09 21:35:44;;;;;;;;;;;17.60;52.10;;;;;;8362236;28;19917;-46
2022/11/09 21:39:44;;;;;;;;;;;17.70;52.20;;;;;;8361699;28;20028;-45
2022/11/09 21:43:45;;;;;;;;;;;17.60;52.10;;;;;;8364695;28;19921;-46
2022/11/09 21:47:45;;;;;;;;;;;17.70;52.20;;;;;;8368544;28;20304;-45
2022/11/09 21:51:46;;;;;;;;;;;17.70;52.20;;;;;;8367569;28;19920;-46
2022/11/09 21:55:46;;;;;;;;;;;17.70;52.30;;;;;;8368099;28;19970;-45
2022/11/09 21:59:47;;;;;;;;;;;17.60;52.40;;;;;;8367386;28;19913;-44
2022/11/09 22:03:47;;;;;;;;;;;17.60;52.30;;;;;;8367200;28;19925;-44
2022/11/09 22:07:48;;;;;;;;;;;17.70;52.40;;;;;;8368012;28;19921;-46
2022/11/09 22:16:08;;;;;;;;;;;17.70;52.40;;;;;;8366799;28;19928;-46
2022/11/09 22:24:28;;;;;;;;;;;17.70;52.50;;;;;;8368814;28;19952;-44
2022/11/09 22:28:28;;;;;;;;;;;17.70;52.50;;;;;;8367229;28;20376;-45
2022/11/09 22:32:28;;;;;;;;;;;17.70;52.60;;;;;;8366930;28;19936;-45
2022/11/09 22:36:29;;;;;;;;;;;17.60;52.50;;;;;;8366404;28;20000;-45
2022/11/09 22:40:29;;;;;;;;;;;17.60;52.60;;;;;;8366247;28;19924;-44
2022/11/09 22:44:30;;;;;;;;;;;17.60;52.50;;;;;;8366379;28;19920;-44
2022/11/09 22:48:31;;;;;;;;;;;17.60;52.70;;;;;;8365967;28;20012;-43
2022/11/09 22:52:32;;;;;;;;;;;17.60;52.70;;;;;;8366637;28;20385;-43
2022/11/09 22:56:32;;;;;;;;;;;17.60;52.50;;;;;;8364232;28;19917;-44
2022/11/09 23:00:32;;;;;;;;;;;17.60;52.50;;;;;;8352162;28;19917;-44
2022/11/09 23:04:33;;;;;;;;;;;17.60;52.50;;;;;;8360738;28;19921;-45
2022/11/09 23:08:37;;;;;;;;;;;17.60;52.50;;;;;;8365788;28;19924;-45
2022/11/09 23:12:37;;;;;;;;;;;17.60;52.50;;;;;;8365320;28;19978;-45
2022/11/09 23:16:37;;;;;;;;;;;17.60;52.50;;;;;;8365349;28;20278;-45
2022/11/09 23:20:38;;;;;;;;;;;17.70;52.60;;;;;;8365429;28;20421;-44
2022/11/09 23:28:58;;;;;;;;;;;17.60;52.60;;;;;;8369437;28;19986;-45
2022/11/09 23:33:00;;;;;;;;;;;17.60;52.60;;;;;;8365155;28;19991;-44
2022/11/09 23:37:00;;;;;;;;;;;17.60;52.60;;;;;;8364335;28;19995;-43
2022/11/09 23:41:02;;;;;;;;;;;17.60;52.90;;;;;;8364768;28;19917;-44
2022/11/09 23:45:02;;;;;;;;;;;17.60;52.60;;;;;;8364574;28;19913;-45
2022/11/09 23:49:02;;;;;;;;;;;17.60;52.60;;;;;;8363949;28;19932;-44
2022/11/09 23:53:03;;;;;;;;;;;17.60;52.60;;;;;;8364813;28;19923;-45